Time;durP1;ratioP1;P1;durP2;ratioP2;P2;SDS_P1;SDS_P2;PMS_P1;PMS_P2;Temp;Humidity;BMP_temperature;BMP_pressure;BME280_temperature;BME280_humidity;BME280_pressure;Samples;Min_cycle;Max_cycle;Signal;HPM_P1;HPM_P2
2022/09/14 04:41:37;;;;;;;20.25;8.88;;;;;;;19.13;85.33;98897.00;5034389;23;20136;-85
2022/09/14 04:44:04;;;;;;;12.52;7.78;;;;;;;19.14;85.30;98894.13;5030381;28;20441;-85
2022/09/14 04:46:35;;;;;;;22.75;8.70;;;;;;;19.17;85.21;98890.19;5030406;28;20041;-86
2022/09/14 04:49:02;;;;;;;18.85;8.70;;;;;;;19.22;84.50;98883.09;5004325;28;20048;-83
2022/09/14 04:51:32;;;;;;;26.70;9.65;;;;;;;19.20;84.84;98871.72;5022715;28;20064;-83
2022/09/14 04:54:01;;;;;;;25.50;10.07;;;;;;;19.17;85.16;98864.09;5013966;28;20132;-83
2022/09/14 04:56:31;;;;;;;22.00;9.30;;;;;;;19.18;84.92;98864.91;5017901;28;20057;-84
2022/09/14 04:59:00;;;;;;;27.40;10.82;;;;;;;19.20;85.37;98878.97;5003676;28;20049;-84
2022/09/14 05:01:29;;;;;;;24.35;10.32;;;;;;;19.21;85.05;98894.06;5019856;28;20069;-84
2022/09/14 05:03:56;;;;;;;26.73;9.40;;;;;;;19.20;85.22;98898.63;5034314;28;20140;-84
2022/09/14 05:06:25;;;;;;;20.92;9.00;;;;;;;19.19;85.31;98897.00;5013659;28;20061;-83
2022/09/14 05:08:53;;;;;;;19.25;8.75;;;;;;;19.23;85.04;98892.84;5028375;28;20104;-84
2022/09/14 05:11:22;;;;;;;21.52;9.75;;;;;;;19.23;85.34;98887.47;5018305;28;20037;-85
2022/09/14 05:13:50;;;;;;;20.55;9.80;;;;;;;19.21;85.54;98886.84;5015827;28;20104;-85
2022/09/14 05:16:36;;;;;;;22.83;8.65;;;;;;;19.06;86.53;98884.44;5012037;28;20053;-83
2022/09/14 05:19:05;;;;;;;15.65;8.32;;;;;;;19.24;85.43;98882.91;4976479;28;20051;-85
2022/09/14 05:21:33;;;;;;;21.55;9.55;;;;;;;19.26;85.36;98878.94;5016564;28;20080;-85
2022/09/14 05:24:05;;;;;;;16.38;8.98;;;;;;;19.22;85.97;98885.78;5021614;28;20132;-85
2022/09/14 05:26:33;;;;;;;22.13;10.32;;;;;;;19.24;85.49;98886.41;5009493;28;20120;-85
2022/09/14 05:29:01;;;;;;;20.58;10.27;;;;;;;19.28;85.48;98887.66;5031671;28;20089;-84
2022/09/14 05:31:28;;;;;;;21.75;9.60;;;;;;;19.28;85.71;98884.09;5031078;28;20172;-85
2022/09/14 05:33:56;;;;;;;26.70;11.43;;;;;;;19.30;85.64;98871.25;5022957;28;20167;-86
2022/09/14 05:36:22;;;;;;;23.63;11.35;;;;;;;19.29;85.94;98878.50;5016640;28;20055;-86
2022/09/14 05:38:49;;;;;;;21.52;10.40;;;;;;;19.27;86.07;98882.47;5032272;28;20038;-83
2022/09/14 05:41:16;;;;;;;25.02;10.57;;;;;;;19.26;86.44;98878.13;5036317;28;20065;-87
2022/09/14 05:43:43;;;;;;;18.95;10.50;;;;;;;19.34;85.74;98880.56;5012538;28;20104;-87
2022/09/14 05:46:16;;;;;;;22.48;10.63;;;;;;;19.33;85.67;98875.38;5014766;28;20041;-87
2022/09/14 05:48:42;;;;;;;;;;;;;;;18.99;88.20;98870.19;5024782;28;20389;-87
2022/09/14 05:55:42;;;;;;;19.88;10.30;;;;;;;19.25;86.09;98852.25;5013812;28;20052;-84
2022/09/14 05:58:09;;;;;;;20.42;10.23;;;;;;;19.30;86.17;98860.50;5031616;28;20059;-84
2022/09/14 06:00:38;;;;;;;22.05;9.73;;;;;;;19.28;86.58;98857.19;5034876;28;20061;-84
2022/09/14 06:03:06;;;;;;;21.13;10.43;;;;;;;19.28;86.84;98843.72;5036459;28;20061;-83
2022/09/14 06:05:34;;;;;;;17.52;9.80;;;;;;;19.31;86.16;98851.41;5030478;28;20127;-84
2022/09/14 06:08:01;;;;;;;22.10;9.30;;;;;;;19.29;86.56;98848.91;5002330;28;20096;-84
2022/09/14 06:10:28;;;;;;;21.92;9.90;;;;;;;19.27;86.15;98856.38;5027709;28;20041;-84
2022/09/14 06:12:54;;;;;;;24.75;11.68;;;;;;;19.29;86.34;98867.75;5019365;28;20111;-84
2022/09/14 06:15:23;;;;;;;24.40;12.30;;;;;;;19.23;86.09;98868.63;5033167;28;20511;-84
2022/09/14 06:17:50;;;;;;;22.50;11.27;;;;;;;19.21;85.91;98876.09;5035942;28;20381;-84
2022/09/14 06:20:17;;;;;;;24.13;11.75;;;;;;;19.22;86.19;98875.03;5012804;28;20080;-85
2022/09/14 06:22:44;;;;;;;21.38;10.55;;;;;;;19.24;86.19;98869.44;5012508;28;20132;-85
2022/09/14 06:25:11;;;;;;;25.45;11.40;;;;;;;19.23;86.15;98868.63;5024218;28;20073;-85
2022/09/14 06:27:37;;;;;;;24.27;11.20;;;;;;;19.24;86.40;98874.81;4992491;28;20119;-85
2022/09/14 06:30:05;;;;;;;23.98;11.73;;;;;;;19.25;86.73;98877.28;5017600;28;20052;-85
2022/09/14 06:32:32;;;;;;;21.77;11.38;;;;;;;19.25;87.01;98882.66;5016505;28;20080;-86
2022/09/14 06:48:45;;;;;;;23.00;11.35;;;;;;;19.14;88.43;98877.16;5025938;28;20052;-86
2022/09/14 06:51:16;;;;;;;21.63;10.32;;;;;;;19.15;88.22;98881.50;5006176;28;20100;-86
2022/09/14 06:53:44;;;;;;;19.27;11.07;;;;;;;19.20;87.83;98884.34;5012600;28;20104;-86
2022/09/14 06:56:11;;;;;;;21.60;11.32;;;;;;;19.24;87.40;98875.66;5019151;28;20472;-85
2022/09/14 06:58:38;;;;;;;21.73;11.27;;;;;;;19.28;87.26;98884.09;5019526;28;20555;-86
2022/09/14 07:01:09;;;;;;;21.63;12.52;;;;;;;19.28;87.31;98882.25;5024929;28;20132;-86
2022/09/14 07:03:37;;;;;;;26.75;12.27;;;;;;;19.32;86.94;98885.34;5002540;28;20056;-86
2022/09/14 07:06:09;;;;;;;28.35;13.40;;;;;;;19.33;86.74;98876.22;5016010;28;20065;-86
2022/09/14 07:13:07;;;;;;;26.65;11.68;;;;;;;19.30;86.96;98880.16;5022629;28;20108;-86
2022/09/14 07:15:34;;;;;;;21.33;12.00;;;;;;;19.33;86.94;98883.47;5004336;28;20060;-87
2022/09/14 07:18:00;;;;;;;25.63;12.35;;;;;;;19.32;86.89;98882.63;5032643;28;20091;-86
2022/09/14 07:20:27;;;;;;;19.90;10.95;;;;;;;19.31;86.64;98883.69;5027722;28;20047;-87
2022/09/14 07:22:54;;;;;;;20.02;11.52;;;;;;;19.36;87.04;98883.88;5035261;28;20499;-86
2022/09/14 07:25:21;;;;;;;23.90;12.25;;;;;;;19.35;87.60;98890.28;5036373;28;20069;-85
2022/09/14 07:27:47;;;;;;;29.38;13.52;;;;;;;19.36;87.25;98888.41;5033757;28;20184;-86
2022/09/14 07:30:14;;;;;;;33.17;12.45;;;;;;;19.40;87.03;98884.25;5005592;28;20060;-86
2022/09/14 07:32:41;;;;;;;24.27;12.40;;;;;;;19.39;87.50;98896.06;5010853;28;20135;-84
2022/09/14 07:35:07;;;;;;;24.25;12.93;;;;;;;19.39;87.91;98913.03;5034835;28;20464;-86
2022/09/14 07:37:34;;;;;;;33.63;15.32;;;;;;;19.44;87.46;98907.84;5016421;28;20449;-85
2022/09/14 07:40:01;;;;;;;31.65;14.93;;;;;;;19.46;87.49;98903.06;5035246;28;20064;-85
2022/09/14 07:42:28;;;;;;;41.55;17.75;;;;;;;19.48;87.61;98900.97;5026402;28;20048;-85
2022/09/14 07:44:54;;;;;;;38.95;18.55;;;;;;;19.51;87.38;98905.09;5012495;28;20124;-85
2022/09/14 07:47:21;;;;;;;38.45;18.10;;;;;;;19.53;87.85;98894.94;5036250;28;20037;-85
2022/09/14 07:49:48;;;;;;;33.15;16.60;;;;;;;19.55;87.15;98898.25;5021891;28;20428;-85
2022/09/14 07:52:14;;;;;;;35.05;16.63;;;;;;;19.56;87.44;98897.19;5031286;28;20046;-84
2022/09/14 07:54:41;;;;;;;37.03;16.98;;;;;;;19.59;87.53;98895.94;5033767;28;20134;-85
2022/09/14 07:57:08;;;;;;;37.78;17.70;;;;;;;19.60;87.05;98898.41;5038546;28;20137;-85
2022/09/14 07:59:34;;;;;;;49.33;19.42;;;;;;;19.64;87.55;98890.72;5040709;28;20045;-82
2022/09/14 08:02:10;;;;;;;48.20;19.35;;;;;;;19.63;87.71;98889.91;5040071;28;20042;-82
2022/09/14 08:04:39;;;;;;;44.22;20.08;;;;;;;19.73;87.08;98901.03;4989802;28;20049;-82
2022/09/14 08:07:06;;;;;;;54.42;21.30;;;;;;;19.73;86.75;98905.63;5033761;28;20053;-82
2022/09/14 08:09:33;;;;;;;50.25;21.60;;;;;;;19.71;86.70;98908.50;5028205;28;20045;-82
2022/09/14 08:12:00;;;;;;;46.17;22.38;;;;;;;19.72;86.63;98912.88;5009592;28;20045;-82
2022/09/14 08:14:26;;;;;;;56.15;23.65;;;;;;;19.73;86.96;98917.22;5018512;28;20049;-82
2022/09/14 08:16:53;;;;;;;45.88;22.83;;;;;;;19.75;86.42;98918.88;5028571;28;20041;-82
2022/09/14 08:24:03;;;;;;;61.45;25.00;;;;;;;19.76;86.94;98909.75;5014818;28;20044;-82
2022/09/14 08:26:30;;;;;;;53.10;24.17;;;;;;;19.79;86.86;98914.69;5034169;28;20485;-82
2022/09/14 08:28:59;;;;;;;52.92;22.58;;;;;;;19.80;86.67;98919.88;5021145;28;20454;-82
2022/09/14 08:31:27;;;;;;;60.42;24.42;;;;;;;19.84;86.63;98941.78;5018603;28;20048;-82
2022/09/14 08:34:00;;;;;;;60.42;27.80;;;;;;;19.83;86.78;98940.16;5006256;28;20049;-82
2022/09/14 08:36:27;;;;;;;;;;;;;;;19.65;88.31;98939.00;5037161;28;20052;-82
2022/09/14 08:38:54;;;;;;;58.80;26.17;;;;;;;19.87;87.12;98944.06;5029814;28;19944;-82
2022/09/14 08:41:41;;;;;;;73.93;30.42;;;;;;;19.87;87.56;98947.59;5039572;28;20040;-82
2022/09/14 08:48:58;;;;;;;72.20;32.63;;;;;;;20.02;87.60;98962.59;5029945;28;20044;-83
2022/09/14 08:51:24;;;;;;;72.25;33.15;;;;;;;20.09;87.94;98966.91;5027571;28;20061;-84
2022/09/14 08:53:52;;;;;;;81.57;36.78;;;;;;;20.13;87.76;98968.13;5018436;28;20049;-84
2022/09/14 08:56:30;;;;;;;62.05;27.60;;;;;;;20.08;87.74;98954.47;5038557;28;20132;-84
2022/09/14 08:59:39;;;;;;;62.35;29.75;;;;;;;20.11;87.81;98953.22;5005102;28;20044;-85
2022/09/14 09:02:28;;;;;;;61.10;30.35;;;;;;;20.13;89.02;98951.13;4949532;28;20045;-84
2022/09/14 09:05:27;;;;;;;68.55;31.42;;;;;;;20.17;88.51;98961.25;5019851;28;20437;-84
2022/09/14 09:08:32;;;;;;;62.53;32.28;;;;;;;20.22;88.61;98965.16;4933257;28;20064;-84
2022/09/14 09:11:00;;;;;;;71.88;31.23;;;;;;;20.37;88.11;98971.88;4916246;28;20484;-84
2022/09/14 09:13:29;;;;;;;76.55;35.58;;;;;;;20.42;88.47;98975.78;5035714;28;20056;-84
2022/09/14 09:15:58;;;;;;;57.22;28.58;;;;;;;20.46;88.31;98955.44;5032244;28;20107;-83
2022/09/14 09:18:41;;;;;;;55.53;31.17;;;;;;;20.44;89.40;98952.94;5019655;28;20048;-84
2022/09/14 09:21:16;;;;;;;71.85;33.53;;;;;;;20.50;88.57;98957.44;5009235;28;20050;-84
2022/09/14 09:23:43;;;;;;;64.18;31.98;;;;;;;20.57;88.89;98950.16;5012806;28;20504;-84
2022/09/14 09:26:27;;;;;;;69.07;35.80;;;;;;;20.54;88.93;98947.91;5037839;28;20041;-84
2022/09/14 09:33:31;;;;;;;61.30;31.77;;;;;;;20.56;88.77;98956.59;5012662;28;20397;-84
2022/09/14 09:36:12;;;;;;;49.58;25.88;;;;;;;20.56;88.73;98966.56;5010132;28;20049;-83
2022/09/14 09:38:39;;;;;;;72.35;36.38;;;;;;;20.56;89.30;98970.09;5003291;28;20084;-83
2022/09/14 09:45:58;;;;;;;66.65;34.30;;;;;;;20.44;90.66;98949.44;5014621;28;20039;-83
2022/09/14 09:53:16;;;;;;;53.72;29.05;;;;;;;20.50;89.69;98945.81;5017612;28;20033;-83
2022/09/14 09:55:46;;;;;;;65.47;34.33;;;;;;;20.49;89.64;98931.53;4989611;28;20053;-83
2022/09/14 09:58:39;;;;;;;47.30;27.08;;;;;;;20.40;90.30;98924.75;5037882;28;20041;-84
2022/09/14 10:01:36;;;;;;;51.35;29.83;;;;;;;20.42;90.71;98913.75;4978086;28;20055;-83
2022/09/14 10:04:06;;;;;;;45.50;27.58;;;;;;;20.56;90.02;98909.94;4944150;28;20400;-83
2022/09/14 10:06:41;;;;;;;57.95;31.88;;;;;;;20.53;90.46;98900.38;5039933;28;20068;-82
2022/09/14 10:09:16;;;;;;;58.33;32.10;;;;;;;20.55;90.44;98903.69;5014274;28;20112;-82
2022/09/14 10:11:44;;;;;;;63.45;32.70;;;;;;;20.65;90.40;98905.06;4999597;28;20197;-83
2022/09/14 10:14:30;;;;;;;68.85;31.50;;;;;;;20.56;91.10;98908.06;5033457;28;20128;-83
2022/09/14 10:17:05;;;;;;;41.08;23.42;;;;;;;20.66;90.09;98902.16;4992561;28;20041;-83
2022/09/14 10:19:32;;;;;;;52.60;29.58;;;;;;;20.72;90.32;98912.03;5025462;28;20544;-84
2022/09/14 10:22:14;;;;;;;55.78;28.35;;;;;;;20.72;90.14;98911.22;5034084;28;20484;-83
2022/09/14 10:24:53;;;;;;;49.35;29.20;;;;;;;20.71;90.11;98901.44;5002935;28;20045;-83
2022/09/14 10:27:39;;;;;;;58.55;30.58;;;;;;;20.70;91.14;98895.22;4999653;28;20049;-83
2022/09/14 10:30:13;;;;;;;50.72;29.95;;;;;;;20.80;90.43;98879.34;4979550;28;20045;-83
2022/09/14 10:32:42;;;;;;;51.70;29.10;;;;;;;20.89;90.15;98877.19;5006522;28;20088;-84
2022/09/14 10:35:51;;;;;;;46.33;27.23;;;;;;;20.83;91.26;98874.56;5003965;28;20389;-83
2022/09/14 10:38:35;;;;;;;59.00;29.60;;;;;;;20.95;90.82;98860.06;4970880;28;20056;-83
2022/09/14 10:41:05;;;;;;;45.97;24.80;;;;;;;20.98;90.98;98864.19;5007846;28;20132;-84
2022/09/14 10:44:09;;;;;;;50.47;28.15;;;;;;;20.91;91.28;98848.06;5017305;28;20112;-83
2022/09/14 10:47:00;;;;;;;52.60;29.35;;;;;;;20.96;91.15;98850.09;4991884;28;20155;-84
2022/09/14 10:49:53;;;;;;;44.03;23.10;;;;;;;21.00;91.67;98848.59;4993574;28;20040;-84
2022/09/14 10:52:23;;;;;;;54.38;26.63;;;;;;;21.08;91.23;98840.19;4991586;28;20087;-83
2022/09/14 10:55:03;;;;;;;54.63;28.77;;;;;;;21.08;91.09;98829.38;4998683;28;20124;-83
2022/09/14 10:58:17;;;;;;;49.00;27.88;;;;;;;21.02;91.35;98823.03;5003000;28;20048;-83
2022/09/14 11:01:05;;;;;;;39.80;22.52;;;;;;;21.14;91.52;98816.84;4954044;28;20052;-84
2022/09/14 11:03:43;;;;;;;53.35;26.25;;;;;;;21.20;91.24;98807.84;4992025;28;20481;-84
2022/09/14 11:06:31;;;;;;;42.15;23.77;;;;;;;21.25;91.91;98802.56;4991627;28;20056;-84
2022/09/14 11:09:03;;;;;;;43.30;24.75;;;;;;;21.29;91.09;98794.81;4992865;28;20440;-84
2022/09/14 11:11:46;;;;;;;38.92;23.35;;;;;;;21.21;92.16;98804.06;5003400;28;20079;-84
2022/09/14 11:14:36;;;;;;;43.42;24.50;;;;;;;21.29;91.39;98797.53;5007721;28;20202;-84
2022/09/14 11:17:06;;;;;;;38.40;19.55;;;;;;;21.38;91.29;98796.16;5008513;28;20045;-84
2022/09/14 11:19:38;;;;;;;34.88;20.52;;;;;;;21.39;90.76;98795.94;5018511;28;20088;-83
2022/09/14 11:23:00;;;;;;;33.67;18.63;;;;;;;21.35;91.54;98786.63;5021083;28;20041;-84
2022/09/14 11:25:33;;;;;;;41.65;20.33;;;;;;;21.41;90.99;98788.44;4958752;28;20049;-84
2022/09/14 11:28:04;;;;;;;41.60;22.92;;;;;;;21.43;90.50;98778.22;5019848;28;20056;-83
2022/09/14 11:31:19;;;;;;;49.58;25.80;;;;;;;21.35;91.74;98778.53;5033697;28;20129;-84
2022/09/14 11:34:12;;;;;;;38.85;24.42;;;;;;;21.50;91.61;98761.91;4944503;28;20420;-84
2022/09/14 11:36:43;;;;;;;38.35;20.08;;;;;;;21.52;92.54;98758.97;4992890;28;20100;-84
2022/09/14 11:43:59;;;;;;;41.03;21.33;;;;;;;21.52;91.23;98753.56;5015134;28;20045;-84
2022/09/14 11:46:30;;;;;;;39.00;23.27;;;;;;;21.60;91.05;98758.63;4993476;28;20065;-84
2022/09/14 11:49:17;;;;;;;39.13;22.33;;;;;;;21.63;91.01;98758.19;5043101;28;20069;-84
2022/09/14 11:51:52;;;;;;;32.45;18.73;;;;;;;21.63;90.67;98752.78;5020740;28;20060;-84
2022/09/14 11:54:21;;;;;;;29.30;18.35;;;;;;;21.73;90.54;98754.88;4998852;28;20041;-84
2022/09/14 11:56:49;;;;;;;38.25;22.38;;;;;;;21.78;91.03;98760.38;5008316;28;20049;-84
2022/09/14 11:59:41;;;;;;;29.38;18.40;;;;;;;21.75;91.49;98763.56;5018606;28;20053;-83
2022/09/14 12:02:22;;;;;;;29.50;18.83;;;;;;;21.78;91.11;98765.78;4994040;28;20068;-83
2022/09/14 12:05:04;;;;;;;34.03;18.45;;;;;;;21.77;90.68;98753.34;5004558;28;20053;-84
2022/09/14 12:10:13;;;;;;;30.42;19.42;;;;;;;21.76;91.80;98762.53;5025964;28;20047;-84
2022/09/14 12:12:42;;;;;;;37.25;19.20;;;;;;;21.74;92.25;98770.03;5010713;28;20077;-84
2022/09/14 12:15:24;;;;;;;29.65;17.00;;;;;;;21.70;92.38;98777.78;5016085;28;20041;-84
2022/09/14 12:17:52;;;;;;;41.47;19.73;;;;;;;21.70;92.29;98775.06;4989228;28;20041;-84
2022/09/14 12:20:41;;;;;;;29.15;18.17;;;;;;;21.68;92.69;98779.91;5013845;28;20064;-84
2022/09/14 12:23:22;;;;;;;23.38;15.43;;;;;;;21.63;92.91;98786.00;4993133;28;20061;-84
2022/09/14 12:26:22;;;;;;;29.73;16.98;;;;;;;21.60;92.90;98783.78;5003598;28;20077;-84
2022/09/14 12:28:51;;;;;;;31.63;17.23;;;;;;;21.72;92.42;98781.06;4963225;28;20045;-84
2022/09/14 12:32:00;;;;;;;23.75;16.02;;;;;;;21.61;92.90;98788.13;5025562;28;20045;-84
2022/09/14 12:34:30;;;;;;;28.95;15.85;;;;;;;21.73;93.02;98785.44;4952256;28;20107;-84
2022/09/14 12:37:29;;;;;;;27.80;14.73;;;;;;;21.61;94.35;98785.41;5010720;28;20037;-84
2022/09/14 12:40:21;;;;;;;28.23;17.67;;;;;;;21.60;93.70;98774.81;4970848;28;20128;-84
2022/09/14 12:42:48;;;;;;;19.30;13.33;;;;;;;21.68;92.92;98788.00;5014066;28;20382;-84
2022/09/14 12:45:50;;;;;;;28.20;13.80;;;;;;;21.57;94.14;98797.72;5004557;28;20425;-84
2022/09/14 12:48:45;;;;;;;23.75;14.40;;;;;;;21.55;94.54;98802.56;4966433;28;20045;-84
2022/09/14 12:54:01;;;;;;;27.55;15.93;;;;;;;21.55;94.52;98789.06;4993415;28;20131;-83
2022/09/14 12:56:41;;;;;;;24.88;14.27;;;;;;;21.58;94.79;98785.06;5005356;28;20132;-84
2022/09/14 12:59:52;;;;;;;18.90;12.75;;;;;;;21.45;94.29;98789.63;5015841;28;20096;-84
2022/09/14 13:02:46;;;;;;;22.35;12.18;;;;;;;21.43;94.40;98780.09;4918594;28;20044;-84
2022/09/14 13:05:15;;;;;;;20.88;11.85;;;;;;;21.52;94.64;98783.28;4993470;28;20520;-84
2022/09/14 13:07:42;;;;;;;16.58;11.18;;;;;;;21.52;94.51;98775.19;5005458;28;20457;-84
2022/09/14 13:10:33;;;;;;;19.42;11.30;;;;;;;21.45;94.85;98780.72;5019811;28;20369;-84
2022/09/14 13:13:01;;;;;;;20.67;12.40;;;;;;;21.49;95.18;98783.75;4980734;28;20203;-84
2022/09/14 13:15:31;;;;;;;28.50;14.50;;;;;;;21.46;95.44;98758.03;5021477;28;20132;-82
2022/09/14 13:18:12;;;;;;;29.63;13.82;;;;;;;21.46;95.91;98756.16;5016575;28;20037;-82
2022/09/14 13:20:39;;;;;;;41.97;16.42;;;;;;;21.43;96.50;98756.63;5003260;28;20041;-83
2022/09/14 13:23:19;;;;;;;32.25;12.70;;;;;;;21.36;97.09;98765.84;5004559;28;20495;-83
2022/09/14 13:25:46;;;;;;;18.23;11.30;;;;;;;21.40;95.75;98756.28;5006730;28;20050;-83
2022/09/14 13:28:17;;;;;;;18.17;12.55;;;;;;;21.38;96.10;98748.41;5031274;28;20444;-83
2022/09/14 13:30:55;;;;;;;26.45;13.02;;;;;;;21.32;96.30;98772.75;5021111;28;20457;-83
2022/09/14 13:33:23;;;;;;;22.65;13.05;;;;;;;21.39;96.68;98789.72;5012819;28;20092;-83
2022/09/14 13:35:53;;;;;;;31.70;14.50;;;;;;;21.37;97.03;98822.34;5032767;28;20061;-82
2022/09/14 13:38:23;;;;;;;31.08;15.27;;;;;;;21.34;97.06;98809.28;5023421;28;20104;-81
2022/09/14 13:40:51;;;;;;;27.48;9.90;;;;;;;21.32;96.49;98826.75;5019500;28;20104;-82
2022/09/14 13:43:19;;;;;;;15.82;5.72;;;;;;;21.24;95.10;98827.91;5036795;28;20532;-83
2022/09/14 13:45:48;;;;;;;18.45;5.05;;;;;;;21.19;94.62;98836.72;5031230;28;20124;-82
2022/09/14 13:48:16;;;;;;;20.30;5.40;;;;;;;21.13;94.45;98823.31;4995517;28;20049;-82
2022/09/14 13:50:49;;;;;;;20.67;4.97;;;;;;;21.02;94.81;98836.53;5007882;28;20072;-82
2022/09/14 13:53:45;;;;;;;15.32;4.50;;;;;;;20.90;94.63;98840.22;5034595;28;20091;-83
2022/09/14 13:56:31;;;;;;;13.13;4.00;;;;;;;20.88;94.29;98835.03;5000584;28;20050;-82
2022/09/14 13:59:15;;;;;;;10.27;3.13;;;;;;;20.84;94.01;98839.25;5016538;28;20061;-83
2022/09/14 14:01:45;;;;;;;7.63;3.20;;;;;;;20.93;93.43;98837.06;4976166;28;20059;-83
2022/09/14 14:04:34;;;;;;;8.82;3.10;;;;;;;20.81;93.43;98826.19;5019977;28;20458;-83
2022/09/14 14:07:12;;;;;;;6.60;2.45;;;;;;;20.81;93.15;98828.91;5038808;28;20072;-83
2022/09/14 14:13:31;;;;;;;6.57;2.50;;;;;;;20.70;93.07;98811.59;4981512;28;20445;-84
2022/09/14 14:20:25;;;;;;;11.23;2.88;;;;;;;20.59;93.57;98823.97;4999405;28;20021;-83
2022/09/14 14:23:07;;;;;;;10.85;2.63;;;;;;;20.63;93.44;98810.03;5004710;28;20045;-83
2022/09/14 14:25:39;;;;;;;10.90;3.05;;;;;;;20.70;93.64;98811.59;4985962;28;20068;-84
2022/09/14 14:28:16;;;;;;;9.98;3.60;;;;;;;20.69;93.13;98806.47;5004666;28;20180;-83
2022/09/14 14:30:42;;;;;;;6.15;2.58;;;;;;;20.70;92.86;98798.13;5038685;28;20103;-83
2022/09/14 14:33:14;;;;;;;15.68;4.13;;;;;;;20.69;92.79;98791.09;5037773;28;20033;-84
2022/09/14 14:35:41;;;;;;;9.35;3.50;;;;;;;20.71;92.27;98780.91;5003588;28;20096;-84
2022/09/14 14:38:08;;;;;;;5.50;3.22;;;;;;;20.72;92.44;98779.84;5023266;28;20101;-83
2022/09/14 14:40:35;;;;;;;8.75;3.58;;;;;;;20.76;92.68;98785.59;5021579;28;20096;-84
2022/09/14 14:43:03;;;;;;;9.60;3.95;;;;;;;20.79;92.58;98790.56;5015200;28;20046;-84
2022/09/14 14:45:32;;;;;;;7.80;4.25;;;;;;;20.80;92.30;98792.19;5023333;28;20057;-84
2022/09/14 14:48:02;;;;;;;7.38;3.88;;;;;;;20.81;92.02;98780.34;5030105;28;20481;-84
2022/09/14 14:50:32;;;;;;;9.50;3.83;;;;;;;20.84;91.74;98770.97;5035119;28;20065;-85
2022/09/14 14:53:00;;;;;;;9.88;4.10;;;;;;;20.85;91.65;98772.63;5026698;28;20061;-83
2022/09/14 14:55:30;;;;;;;14.70;4.72;;;;;;;20.87;91.64;98779.44;5023433;28;20041;-84
2022/09/14 14:58:01;;;;;;;12.20;4.13;;;;;;;20.85;91.18;98757.25;5018980;28;20561;-84
2022/09/14 15:00:32;;;;;;;8.45;3.70;;;;;;;20.87;91.53;98743.53;5000166;28;20048;-84
2022/09/14 15:02:59;;;;;;;14.48;4.20;;;;;;;20.90;91.44;98760.09;5008742;28;20056;-84
2022/09/14 15:05:26;;;;;;;9.32;4.70;;;;;;;20.91;91.58;98764.41;5036034;28;20041;-84
2022/09/14 15:07:53;;;;;;;9.05;3.60;;;;;;;20.90;91.36;98754.69;5037539;28;20037;-83
2022/09/14 15:10:22;;;;;;;12.15;4.47;;;;;;;20.91;91.32;98750.94;5015743;28;20569;-82
2022/09/14 15:12:51;;;;;;;16.42;4.55;;;;;;;20.91;91.70;98747.41;5009525;28;20160;-83
2022/09/14 15:15:44;;;;;;;10.18;4.50;;;;;;;20.77;91.69;98736.81;5041357;28;20124;-83
2022/09/14 15:18:10;;;;;;;9.13;3.90;;;;;;;20.90;91.32;98733.09;5017084;28;20132;-84
2022/09/14 15:20:37;;;;;;;9.10;3.58;;;;;;;20.89;91.26;98726.06;5032900;28;20041;-83
2022/09/14 15:23:04;;;;;;;10.85;3.97;;;;;;;20.87;91.42;98724.66;5037624;28;20051;-83
2022/09/14 15:25:31;;;;;;;6.15;3.80;;;;;;;20.86;91.58;98725.69;5006806;28;20049;-83
2022/09/14 15:27:58;;;;;;;8.82;3.90;;;;;;;20.87;91.46;98733.56;5033078;28;20095;-83
2022/09/14 15:30:25;;;;;;;6.05;3.60;;;;;;;20.88;91.20;98721.72;5025380;28;20053;-83
2022/09/14 15:32:52;;;;;;;14.45;3.95;;;;;;;20.85;91.21;98710.56;5037391;28;20045;-83
2022/09/14 15:35:20;;;;;;;6.13;3.78;;;;;;;20.84;90.62;98723.25;5033543;28;20041;-83
2022/09/14 15:37:52;;;;;;;11.05;4.47;;;;;;;20.79;90.81;98728.50;5038192;28;20432;-83
2022/09/14 15:40:19;;;;;;;9.27;4.30;;;;;;;20.76;91.53;98727.09;5026319;28;20037;-84
2022/09/14 15:42:46;;;;;;;10.15;4.03;;;;;;;20.80;91.47;98730.94;5035569;28;20128;-84
2022/09/14 15:45:13;;;;;;;10.75;4.00;;;;;;;20.80;91.43;98722.03;5040066;28;20119;-84
2022/09/14 15:47:41;;;;;;;13.07;4.60;;;;;;;20.78;91.29;98721.44;5011461;28;20056;-84
2022/09/14 15:50:08;;;;;;;7.72;4.45;;;;;;;20.77;91.05;98711.72;5027328;28;20045;-84
2022/09/14 15:52:36;;;;;;;15.82;4.65;;;;;;;20.77;91.56;98701.75;5012596;28;20124;-85
2022/09/14 16:04:06;;;;;;;15.30;8.93;;;;;;;20.66;91.82;98716.03;4998989;28;20035;-83
2022/09/14 16:06:37;;;;;;;7.72;4.40;;;;;;;20.60;92.14;98709.63;5018437;28;20060;-82
2022/09/14 16:09:06;;;;;;;12.35;5.03;;;;;;;20.64;91.94;98722.69;5036726;28;20069;-83
2022/09/14 16:11:33;;;;;;;10.27;4.38;;;;;;;20.63;92.50;98734.50;4996648;28;20131;-83
2022/09/14 16:14:00;;;;;;;9.75;4.07;;;;;;;20.61;92.56;98740.16;5025647;28;20483;-82
2022/09/14 16:28:21;;;;;;;;;;;;;;;20.30;95.19;98723.09;4917160;28;20046;-83
2022/09/14 16:30:51;;;;;;;8.50;4.47;;;;;;;20.51;93.57;98726.34;4970944;28;19930;-81
2022/09/14 16:33:18;;;;;;;11.63;4.60;;;;;;;20.55;93.31;98731.06;4988631;28;20814;-83
2022/09/14 16:40:35;;;;;;;13.82;4.32;;;;;;;20.52;93.66;98739.59;4978599;28;20142;-83
2022/09/14 16:43:07;;;;;;;11.30;4.13;;;;;;;20.55;93.20;98744.56;4968196;28;20050;-84
2022/09/14 16:45:34;;;;;;;9.18;4.07;;;;;;;20.56;93.49;98746.22;4983543;28;20117;-84
2022/09/14 16:48:02;;;;;;;9.35;3.83;;;;;;;20.54;93.62;98767.19;4961980;28;20050;-83
2022/09/14 16:50:29;;;;;;;8.15;3.83;;;;;;;20.55;93.22;98773.41;4967757;28;20047;-82
2022/09/14 16:52:56;;;;;;;11.23;3.33;;;;;;;20.52;93.12;98771.13;5034113;28;20382;-82
2022/09/14 16:55:23;;;;;;;8.45;3.00;;;;;;;20.51;93.48;98777.59;5021822;28;20106;-82
2022/09/14 17:02:20;;;;;;;6.50;2.88;;;;;;;20.39;93.33;98762.16;5008779;28;20042;-82
2022/09/14 17:04:47;;;;;;;9.07;3.10;;;;;;;20.38;93.03;98768.63;5022694;28;20041;-83
2022/09/14 17:07:14;;;;;;;12.15;3.35;;;;;;;20.42;92.83;98763.56;5035501;28;20058;-83
2022/09/14 17:09:41;;;;;;;12.20;4.22;;;;;;;20.39;92.87;98764.84;5009533;28;20056;-82
2022/09/14 17:12:07;;;;;;;8.65;3.92;;;;;;;20.41;92.88;98775.44;5023896;28;20080;-82
2022/09/14 17:14:34;;;;;;;7.78;3.97;;;;;;;20.38;92.95;98787.47;5023675;28;20115;-82
2022/09/14 17:17:00;;;;;;;10.82;3.70;;;;;;;20.39;92.71;98770.25;5034854;28;20056;-86
2022/09/14 17:33:35;;;;;;;15.73;3.70;;;;;;;20.23;93.16;98770.03;5028455;28;20076;-86
2022/09/14 17:40:35;;;;;;;9.77;3.85;;;;;;;20.21;92.46;98767.56;4997159;28;20045;-85
2022/09/14 17:43:02;;;;;;;7.47;3.88;;;;;;;20.21;92.54;98772.13;5023078;28;20046;-84
2022/09/14 17:54:36;;;;;;;15.10;4.35;;;;;;;20.12;91.96;98745.47;5014659;28;20033;-85
2022/09/14 17:57:03;;;;;;;14.93;6.22;;;;;;;20.10;92.26;98742.19;5027214;28;20124;-85
2022/09/14 17:59:29;;;;;;;9.80;4.43;;;;;;;20.08;92.35;98746.97;5038125;28;20052;-84
2022/09/14 18:01:56;;;;;;;6.95;4.20;;;;;;;20.08;91.98;98760.44;5035433;28;20053;-85
2022/09/14 18:04:23;;;;;;;6.88;3.67;;;;;;;20.06;91.74;98762.53;5042955;28;20385;-84
2022/09/14 18:06:50;;;;;;;8.45;4.00;;;;;;;20.04;92.27;98777.28;5037295;28;20045;-90
2022/09/14 18:09:20;;;;;;;9.00;3.65;;;;;;;20.05;91.40;98768.97;5014325;28;20049;-91
2022/09/14 18:11:47;;;;;;;13.35;4.18;;;;;;;20.05;91.64;98779.75;5006626;28;20072;-91
2022/09/14 18:14:14;;;;;;;15.27;4.13;;;;;;;20.07;91.15;98790.28;5008852;28;20053;-91
2022/09/14 18:16:42;;;;;;;7.93;3.28;;;;;;;20.06;91.43;98791.34;5008133;28;20138;-91
2022/09/14 18:23:47;;;;;;;15.70;3.88;;;;;;;20.02;91.47;98787.44;5006790;28;20036;-91
2022/09/14 18:26:14;;;;;;;7.88;3.60;;;;;;;20.04;91.62;98769.19;5019477;28;20067;-91
2022/09/14 18:28:43;;;;;;;7.68;3.40;;;;;;;20.06;91.31;98778.69;5011802;28;20049;-93
2022/09/14 18:31:11;;;;;;;8.93;3.47;;;;;;;20.03;91.52;98775.63;5008014;28;20065;-91
2022/09/14 18:33:39;;;;;;;5.78;3.72;;;;;;;20.00;91.62;98779.59;5019837;28;20563;-90
2022/09/14 18:36:13;;;;;;;10.60;3.85;;;;;;;19.97;91.14;98780.03;5006068;28;20041;-87